Time;durP1;ratioP1;P1;durP2;ratioP2;P2;SDS_P1;SDS_P2;PMS_P1;PMS_P2;Temp;Humidity;BMP_temperature;BMP_pressure;BME280_temperature;BME280_humidity;BME280_pressure;Samples;Min_cycle;Max_cycle;Signal;HPM_P1;HPM_P2
2021/12/21 00:00:35;;;;;;;7.40;5.30;;;4.10;99.30;;;;;;4876436;28;20607;-83
2021/12/21 00:03:02;;;;;;;11.73;5.47;;;4.10;99.20;;;;;;4875513;28;20605;-84
2021/12/21 00:05:29;;;;;;;12.00;6.20;;;4.10;99.00;;;;;;4868373;28;20487;-82
2021/12/21 00:07:59;;;;;;;9.17;5.80;;;4.20;98.70;;;;;;4919356;28;20491;-82
2021/12/21 00:10:29;;;;;;;8.90;5.90;;;4.10;98.60;;;;;;4884886;28;20454;-84
2021/12/21 00:18:23;;;;;;;7.10;5.07;;;3.90;98.50;;;;;;4903863;28;21051;-83
2021/12/21 00:20:52;;;;;;;8.10;6.57;;;3.80;98.70;;;;;;4918143;28;20469;-82
2021/12/21 00:23:31;;;;;;;8.73;5.33;;;3.80;98.90;;;;;;4937192;28;20467;-82
2021/12/21 00:26:06;;;;;;;9.37;5.77;;;3.80;98.90;;;;;;4930774;28;20486;-83
2021/12/21 00:28:40;;;;;;;8.67;5.60;;;3.70;98.90;;;;;;4890604;28;22547;-82
2021/12/21 00:31:07;;;;;;;7.70;4.60;;;3.70;99.10;;;;;;4872046;28;20609;-84
2021/12/21 00:33:34;;;;;;;7.67;6.23;;;3.70;98.80;;;;;;4868837;28;20468;-84
2021/12/21 00:36:01;;;;;;;10.37;5.47;;;3.80;98.70;;;;;;4868888;28;20466;-84
2021/12/21 00:38:28;;;;;;;7.60;5.80;;;3.80;98.60;;;;;;4919809;28;20490;-84
2021/12/21 00:40:54;;;;;;;7.90;6.63;;;3.80;98.60;;;;;;4867617;28;20466;-83
2021/12/21 00:43:21;;;;;;;8.33;5.87;;;3.90;98.40;;;;;;4872763;28;22058;-84
2021/12/21 00:45:48;;;;;;;6.37;5.73;;;3.90;98.30;;;;;;4872556;28;20500;-84
2021/12/21 00:48:16;;;;;;;6.47;5.40;;;3.80;98.50;;;;;;4875097;28;20489;-83
2021/12/21 00:50:43;;;;;;;8.67;5.67;;;4.00;98.60;;;;;;4921129;28;20464;-86
2021/12/21 00:53:10;;;;;;;8.17;6.40;;;4.00;98.50;;;;;;4927908;28;20463;-84
2021/12/21 00:55:37;;;;;;;7.73;4.73;;;3.90;98.60;;;;;;4929660;28;20469;-83
2021/12/21 00:58:04;;;;;;;8.70;4.70;;;3.80;98.80;;;;;;4923005;28;22559;-83
2021/12/21 01:00:31;;;;;;;6.70;5.03;;;3.60;98.80;;;;;;4880802;28;20466;-83
2021/12/21 01:03:04;;;;;;;7.90;5.20;;;3.60;99.00;;;;;;4864231;28;20454;-85
2021/12/21 01:05:40;;;;;;;5.80;4.73;;;3.50;99.10;;;;;;4864507;28;21444;-83
2021/12/21 01:08:11;;;;;;;8.23;5.00;;;3.40;99.30;;;;;;4862689;28;20492;-84
2021/12/21 01:16:39;;;;;;;6.30;4.90;;;3.70;99.30;;;;;;4868818;28;20795;-83
2021/12/21 01:18:55;;;;;;;6.40;5.70;;;3.70;98.80;;;;;;4863280;28;22729;-84
2021/12/21 01:21:26;;;;;;;6.67;4.90;;;3.60;98.80;;;;;;4914818;28;20454;-82
2021/12/21 01:27:04;;;;;;;10.17;5.43;;;3.60;98.80;;;;;;4902944;28;20545;-84
2021/12/21 01:30:03;;;;;;;5.87;4.70;;;3.50;98.80;;;;;;4923042;28;21414;-83
2021/12/21 01:32:32;;;;;;;8.10;5.23;;;3.40;99.00;;;;;;4875037;28;20490;-84
2021/12/21 01:37:47;;;;;;;6.23;5.63;;;3.30;99.40;;;;;;4862903;28;21781;-84
2021/12/21 01:40:40;;;;;;;8.53;5.57;;;3.30;99.60;;;;;;4915390;28;20467;-82
2021/12/21 01:51:13;;;;;;;10.83;5.70;;;3.30;99.70;;;;;;4931639;28;20939;-83
2021/12/21 01:53:41;;;;;;;12.23;6.80;;;3.40;99.70;;;;;;4928090;28;20469;-85
2021/12/21 01:56:08;;;;;;;9.93;6.80;;;3.50;99.80;;;;;;4926792;28;21849;-83
2021/12/21 01:58:37;;;;;;;7.30;6.30;;;3.60;99.80;;;;;;4897359;28;20503;-85
2021/12/21 02:01:10;;;;;;;10.53;6.00;;;3.50;99.70;;;;;;4864668;28;20466;-87
2021/12/21 02:03:39;;;;;;;9.87;6.50;;;3.50;99.90;;;;;;4863524;28;20457;-86
2021/12/21 02:06:06;;;;;;;9.23;6.10;;;3.40;99.90;;;;;;4864050;28;22791;-86
2021/12/21 02:08:33;;;;;;;9.80;6.60;;;3.20;99.90;;;;;;4918518;28;20519;-84
2021/12/21 02:11:04;;;;;;;7.80;6.20;;;3.10;99.90;;;;;;4848715;28;20473;-84
2021/12/21 02:13:35;;;;;;;8.20;5.90;;;3.20;99.90;;;;;;4870984;28;20540;-83
2021/12/21 02:16:03;;;;;;;7.33;5.73;;;3.10;99.90;;;;;;4874115;28;20453;-84
2021/12/21 02:23:45;;;;;;;9.00;5.87;;;3.00;99.90;;;;;;4928799;28;20868;-85
2021/12/21 02:31:08;;;;;;;9.27;6.10;;;3.30;99.90;;;;;;4869029;28;20456;-85
2021/12/21 02:33:35;;;;;;;9.30;5.30;;;3.40;99.90;;;;;;4868912;28;20461;-87
2021/12/21 02:36:03;;;;;;;8.87;5.70;;;3.40;99.90;;;;;;4862695;28;21743;-85
2021/12/21 02:38:30;;;;;;;8.27;5.80;;;3.20;99.90;;;;;;4924070;28;20567;-86
2021/12/21 02:40:57;;;;;;;8.67;6.13;;;3.20;99.90;;;;;;4875415;28;20461;-85
2021/12/21 02:43:24;;;;;;;6.17;5.00;;;3.40;99.90;;;;;;4889362;28;21659;-83
2021/12/21 02:45:50;;;;;;;7.93;5.77;;;3.30;99.80;;;;;;4884998;28;20487;-85
2021/12/21 02:48:17;;;;;;;12.43;5.90;;;3.20;99.90;;;;;;4921916;28;20467;-86
2021/12/21 02:50:44;;;;;;;6.30;4.93;;;3.20;99.90;;;;;;4926655;28;20575;-85
2021/12/21 02:53:10;;;;;;;7.47;4.70;;;3.00;99.90;;;;;;4929172;28;20548;-85
2021/12/21 02:55:38;;;;;;;10.13;5.43;;;3.00;99.90;;;;;;4933033;28;20467;-87
2021/12/21 02:58:06;;;;;;;7.57;5.20;;;3.00;99.90;;;;;;4942476;28;20491;-86
2021/12/21 03:00:34;;;;;;;6.73;5.63;;;3.10;99.70;;;;;;4888528;28;20486;-86
2021/12/21 03:03:07;;;;;;;6.67;5.47;;;3.20;99.60;;;;;;4877305;28;20468;-86
2021/12/21 03:05:35;;;;;;;7.77;6.37;;;3.20;99.60;;;;;;4869000;28;20497;-85
2021/12/21 03:10:33;;;;;;;10.00;6.07;;;2.90;99.90;;;;;;4931267;28;20465;-84
2021/12/21 03:15:45;;;;;;;6.17;5.33;;;3.00;99.90;;;;;;4873558;28;20468;-86
2021/12/21 03:18:12;;;;;;;6.40;5.70;;;3.00;99.90;;;;;;4869247;28;20650;-86
2021/12/21 03:20:39;;;;;;;8.03;5.27;;;2.80;99.90;;;;;;4914704;28;20470;-83
2021/12/21 03:23:05;;;;;;;8.10;6.00;;;2.80;99.90;;;;;;4927429;28;20476;-83
2021/12/21 03:25:32;;;;;;;7.00;5.03;;;3.00;99.90;;;;;;4956332;28;20483;-86
2021/12/21 03:27:59;;;;;;;7.97;5.30;;;2.80;99.90;;;;;;4960886;28;21801;-86
2021/12/21 03:30:27;;;;;;;8.60;5.30;;;2.90;99.90;;;;;;4923744;28;21338;-87
2021/12/21 03:32:54;;;;;;;7.40;5.20;;;2.80;99.90;;;;;;4905257;28;21831;-83
2021/12/21 03:35:21;;;;;;;7.00;5.23;;;2.90;99.90;;;;;;4907266;28;22012;-86
2021/12/21 03:37:48;;;;;;;8.73;6.30;;;3.00;99.90;;;;;;4898895;28;20485;-84
2021/12/21 03:40:15;;;;;;;8.00;5.50;;;3.00;99.90;;;;;;4901747;28;20463;-83
2021/12/21 03:42:42;;;;;;;5.40;4.53;;;2.90;99.90;;;;;;4879235;28;20461;-85
2021/12/21 03:45:09;;;;;;;6.40;5.23;;;3.00;99.90;;;;;;4882159;28;20464;-83
2021/12/21 03:47:36;;;;;;;7.20;4.50;;;2.80;99.60;;;;;;4891732;28;20501;-84
2021/12/21 03:50:11;;;;;;;13.40;5.20;;;2.80;99.60;;;;;;4928799;28;20452;-86
2021/12/21 03:52:38;;;;;;;8.47;5.70;;;2.80;99.70;;;;;;4941235;28;20464;-85
2021/12/21 03:55:06;;;;;;;8.40;5.40;;;2.80;99.70;;;;;;4939592;28;20467;-85
2021/12/21 03:57:32;;;;;;;8.13;5.70;;;2.80;99.90;;;;;;4924526;28;20505;-84
2021/12/21 04:00:00;;;;;;;8.87;5.90;;;2.70;99.90;;;;;;4882066;28;20981;-85
2021/12/21 04:02:28;;;;;;;7.00;5.30;;;2.50;99.90;;;;;;4877645;28;20466;-85
2021/12/21 04:04:58;;;;;;;7.37;5.50;;;2.50;99.90;;;;;;4874241;28;20526;-84
2021/12/21 04:07:25;;;;;;;8.73;5.60;;;2.50;99.90;;;;;;4875222;28;20592;-84
2021/12/21 04:09:52;;;;;;;11.20;7.50;;;2.50;99.90;;;;;;4930965;28;20480;-86
2021/12/21 04:12:20;;;;;;;6.80;6.10;;;2.70;99.90;;;;;;4885075;28;20829;-85
2021/12/21 04:14:47;;;;;;;9.00;5.37;;;2.70;99.90;;;;;;4881365;28;22065;-85
2021/12/21 04:17:21;;;;;;;7.90;4.90;;;2.60;99.90;;;;;;4887083;28;20578;-83
2021/12/21 04:19:49;;;;;;;7.53;5.57;;;2.50;99.90;;;;;;4920014;28;20472;-86
2021/12/21 04:22:17;;;;;;;5.87;5.00;;;2.60;99.90;;;;;;4931599;28;20468;-86
2021/12/21 04:24:44;;;;;;;8.50;5.53;;;2.50;99.90;;;;;;4939285;28;20464;-85
2021/12/21 04:27:14;;;;;;;7.90;5.57;;;2.50;99.90;;;;;;4936450;28;20510;-84
2021/12/21 04:29:41;;;;;;;9.93;5.20;;;2.60;99.90;;;;;;4926480;28;20457;-84
2021/12/21 04:32:08;;;;;;;5.30;4.80;;;2.60;99.90;;;;;;4873303;28;20489;-85
2021/12/21 04:34:35;;;;;;;4.90;4.50;;;2.70;99.90;;;;;;4871591;28;20468;-84
2021/12/21 04:37:02;;;;;;;7.90;6.00;;;2.80;99.90;;;;;;4879160;28;20484;-85
2021/12/21 04:39:37;;;;;;;9.07;4.80;;;2.80;99.90;;;;;;4875326;28;20494;-84
2021/12/21 04:42:05;;;;;;;7.53;4.97;;;2.60;99.90;;;;;;4940286;28;20466;-85
2021/12/21 04:44:32;;;;;;;6.87;5.47;;;2.70;99.90;;;;;;4900988;28;20470;-85
2021/12/21 04:47:00;;;;;;;7.93;4.80;;;2.70;99.90;;;;;;4869833;28;20713;-85
2021/12/21 04:49:27;;;;;;;4.83;4.33;;;2.70;99.90;;;;;;4888942;28;21751;-83
2021/12/21 04:51:54;;;;;;;5.90;4.80;;;2.60;99.90;;;;;;4935503;28;20993;-84
2021/12/21 04:54:21;;;;;;;5.80;4.63;;;2.50;99.40;;;;;;4943397;28;20459;-85
2021/12/21 04:56:47;;;;;;;6.80;4.97;;;2.40;99.60;;;;;;4945988;28;20475;-85
2021/12/21 04:59:14;;;;;;;9.60;4.97;;;2.40;99.90;;;;;;4933197;28;20466;-84
2021/12/21 05:01:42;;;;;;;9.70;6.00;;;2.40;99.90;;;;;;4887610;28;20755;-84
2021/12/21 05:04:09;;;;;;;9.47;5.60;;;2.40;99.90;;;;;;4872612;28;21260;-85
2021/12/21 05:06:36;;;;;;;6.17;5.27;;;2.30;99.90;;;;;;4868838;28;20512;-85
2021/12/21 05:09:12;;;;;;;7.60;5.30;;;2.30;99.90;;;;;;4886683;28;20514;-83
2021/12/21 05:11:42;;;;;;;10.20;5.00;;;2.30;99.90;;;;;;4908069;28;20464;-85
2021/12/21 05:14:09;;;;;;;6.70;6.00;;;2.10;99.90;;;;;;4876781;28;20496;-85
2021/12/21 05:16:36;;;;;;;6.00;4.37;;;2.00;99.90;;;;;;4888943;28;20568;-85
2021/12/21 05:19:05;;;;;;;6.00;4.97;;;2.10;99.90;;;;;;4919390;28;22602;-86
2021/12/21 05:21:33;;;;;;;8.07;6.20;;;2.20;99.90;;;;;;4946190;28;22357;-84
2021/12/21 05:23:59;;;;;;;8.03;6.33;;;2.20;99.90;;;;;;4935804;28;20460;-84
2021/12/21 05:26:28;;;;;;;8.73;5.97;;;2.40;99.90;;;;;;4906783;28;20494;-85
2021/12/21 05:28:55;;;;;;;6.50;5.50;;;2.50;99.90;;;;;;4880093;28;20469;-85
2021/12/21 05:31:22;;;;;;;9.20;5.57;;;2.50;99.90;;;;;;4875612;28;21227;-85
2021/12/21 05:33:51;;;;;;;7.63;4.87;;;2.40;99.90;;;;;;4874361;28;20462;-86
2021/12/21 05:36:20;;;;;;;9.33;5.80;;;2.40;99.90;;;;;;4917961;28;20480;-84
2021/12/21 05:38:51;;;;;;;8.80;5.83;;;2.30;99.90;;;;;;4866797;28;20489;-85
2021/12/21 05:41:25;;;;;;;8.27;6.00;;;2.30;99.90;;;;;;4886575;28;21934;-83
2021/12/21 05:43:53;;;;;;;13.30;6.47;;;2.20;99.90;;;;;;4887456;28;20477;-86
2021/12/21 05:46:20;;;;;;;9.77;5.87;;;2.20;99.90;;;;;;4923322;28;20494;-86
2021/12/21 05:48:51;;;;;;;8.47;6.07;;;2.20;99.90;;;;;;4914906;28;21963;-84
2021/12/21 05:51:20;;;;;;;10.40;5.83;;;2.10;99.90;;;;;;4935069;28;21779;-85
2021/12/21 05:53:47;;;;;;;11.20;5.67;;;2.10;99.90;;;;;;4935331;28;20551;-85
2021/12/21 05:56:14;;;;;;;9.50;5.80;;;2.10;99.90;;;;;;4904963;28;20460;-86
2021/12/21 05:58:41;;;;;;;9.37;6.57;;;2.10;99.90;;;;;;4877178;28;20495;-83
2021/12/21 06:01:08;;;;;;;7.23;5.00;;;2.10;99.90;;;;;;4873624;28;20468;-86
2021/12/21 06:03:34;;;;;;;8.00;6.10;;;2.10;99.90;;;;;;4888689;28;20460;-84
2021/12/21 06:06:01;;;;;;;7.50;5.70;;;2.10;99.90;;;;;;4932102;28;21004;-87
2021/12/21 06:08:28;;;;;;;10.00;5.70;;;2.00;99.90;;;;;;4875554;28;20484;-86
2021/12/21 06:10:56;;;;;;;10.50;6.20;;;1.90;99.90;;;;;;4893304;28;20463;-84
2021/12/21 06:13:43;;;;;;;14.70;7.63;;;2.10;99.90;;;;;;4882327;28;21766;-83
2021/12/21 06:27:11;;;;;;;13.00;6.40;;;2.10;99.90;;;;;;4883043;28;20482;-85
2021/12/21 06:29:38;;;;;;;6.67;5.60;;;2.10;99.90;;;;;;4870500;28;20823;-85
2021/12/21 06:32:06;;;;;;;8.13;5.13;;;2.20;99.90;;;;;;4871392;28;21275;-84
2021/12/21 06:34:33;;;;;;;9.73;6.10;;;2.10;99.90;;;;;;4925266;28;20455;-85
2021/12/21 06:37:00;;;;;;;9.20;6.70;;;2.10;99.90;;;;;;4881116;28;21634;-85
2021/12/21 06:39:28;;;;;;;8.40;5.40;;;2.00;99.90;;;;;;4777656;28;21546;-85
2021/12/21 06:41:56;;;;;;;11.23;5.70;;;2.10;99.90;;;;;;4854679;28;20454;-85
2021/12/21 06:44:26;;;;;;;10.17;6.27;;;1.90;99.90;;;;;;4902114;28;20564;-86
2021/12/21 06:51:06;;;;;;;8.70;5.20;;;1.80;99.90;;;;;;4916780;28;21930;-84
2021/12/21 06:52:26;;;;;;;8.17;5.97;;;1.90;99.90;;;;;;4940811;28;20465;-85
2021/12/21 06:54:53;;;;;;;7.30;5.73;;;1.90;99.90;;;;;;4899405;28;20454;-86
2021/12/21 06:57:20;;;;;;;8.87;5.50;;;2.00;99.90;;;;;;4868436;28;20474;-86
2021/12/21 06:59:47;;;;;;;8.10;4.70;;;1.80;99.90;;;;;;4860696;28;21553;-83
2021/12/21 07:02:14;;;;;;;9.30;5.83;;;1.80;99.90;;;;;;4893632;28;20517;-85
2021/12/21 07:04:41;;;;;;;6.73;4.63;;;1.80;99.90;;;;;;4890052;28;20564;-83
2021/12/21 07:07:10;;;;;;;8.77;4.83;;;1.80;99.90;;;;;;4856373;28;22181;-85
2021/12/21 07:09:42;;;;;;;11.27;5.13;;;1.70;99.90;;;;;;4867201;28;21836;-83
2021/12/21 07:12:28;;;;;;;8.90;4.87;;;1.70;99.90;;;;;;4868773;28;20467;-84
2021/12/21 07:20:26;;;;;;;8.17;5.73;;;1.80;99.90;;;;;;4924370;28;20494;-84
2021/12/21 07:22:53;;;;;;;8.83;5.83;;;1.90;99.90;;;;;;4936638;28;22061;-82
2021/12/21 07:25:19;;;;;;;9.10;5.80;;;2.00;99.90;;;;;;4893563;28;22344;-85
2021/12/21 07:27:46;;;;;;;7.00;5.63;;;2.00;99.90;;;;;;4876286;28;20490;-84
2021/12/21 07:30:15;;;;;;;8.60;5.83;;;2.10;99.90;;;;;;4872310;28;21131;-85
2021/12/21 07:32:42;;;;;;;8.30;5.47;;;2.00;99.90;;;;;;4881958;28;20452;-83
2021/12/21 07:35:09;;;;;;;8.50;5.90;;;1.80;99.90;;;;;;4922287;28;20618;-85
2021/12/21 07:37:35;;;;;;;7.87;5.33;;;1.80;99.90;;;;;;4871456;28;21734;-87
2021/12/21 07:40:04;;;;;;;7.10;5.10;;;1.70;99.90;;;;;;4863999;28;22257;-85
2021/12/21 07:42:31;;;;;;;7.93;4.57;;;1.70;99.90;;;;;;4873719;28;22465;-87
2021/12/21 07:44:58;;;;;;;8.07;4.83;;;1.80;99.90;;;;;;4913626;28;20463;-84
2021/12/21 07:47:25;;;;;;;6.77;4.70;;;1.90;99.90;;;;;;4910782;28;21139;-86
2021/12/21 07:49:52;;;;;;;9.23;4.77;;;2.00;99.90;;;;;;4934041;28;21973;-85
2021/12/21 07:52:19;;;;;;;10.07;4.77;;;1.90;99.90;;;;;;4919886;28;20463;-85
2021/12/21 07:54:46;;;;;;;7.10;4.90;;;2.00;99.90;;;;;;4881327;28;21196;-84
2021/12/21 07:57:13;;;;;;;8.43;5.40;;;2.00;99.90;;;;;;4875953;28;20485;-83
2021/12/21 07:59:40;;;;;;;8.80;4.93;;;1.90;99.90;;;;;;4877832;28;20462;-86
2021/12/21 08:02:11;;;;;;;9.23;5.20;;;2.00;99.90;;;;;;4871379;28;20464;-85
2021/12/21 08:04:38;;;;;;;7.97;5.40;;;2.20;99.90;;;;;;4919215;28;20460;-85
2021/12/21 08:07:11;;;;;;;14.80;6.37;;;2.20;99.90;;;;;;4881258;28;20523;-85
2021/12/21 08:09:43;;;;;;;12.57;6.27;;;2.10;99.90;;;;;;4874827;28;20521;-86
2021/12/21 08:12:16;;;;;;;11.33;5.40;;;2.10;99.90;;;;;;4900792;28;20471;-85
2021/12/21 08:14:44;;;;;;;8.10;6.90;;;2.20;99.90;;;;;;4915343;28;20459;-85
2021/12/21 08:17:12;;;;;;;10.03;5.23;;;2.10;99.90;;;;;;4898623;28;20560;-84
2021/12/21 08:19:42;;;;;;;10.23;6.53;;;2.10;99.90;;;;;;4927878;28;20522;-84
2021/12/21 08:22:08;;;;;;;8.20;6.23;;;2.30;99.90;;;;;;4936178;28;20475;-83
2021/12/21 08:24:36;;;;;;;12.13;6.80;;;2.30;99.90;;;;;;4919934;28;20466;-84
2021/12/21 08:27:13;;;;;;;10.13;5.40;;;2.20;99.90;;;;;;4918471;28;21346;-85
2021/12/21 08:29:55;;;;;;;10.03;5.77;;;2.10;99.90;;;;;;4939253;28;20609;-85
2021/12/21 08:32:22;;;;;;;8.90;5.20;;;2.00;99.90;;;;;;4904298;28;20464;-84
2021/12/21 08:34:49;;;;;;;7.90;4.67;;;2.00;99.90;;;;;;4934964;28;20480;-85
2021/12/21 08:37:16;;;;;;;10.17;5.00;;;1.90;99.90;;;;;;4909576;28;20481;-84
2021/12/21 08:39:47;;;;;;;8.93;4.50;;;1.90;99.90;;;;;;4911106;28;21251;-85
2021/12/21 08:42:15;;;;;;;9.60;5.13;;;1.90;99.90;;;;;;4909473;28;20440;-85
2021/12/21 08:44:45;;;;;;;7.83;5.20;;;2.00;99.90;;;;;;4955085;28;20460;-84
2021/12/21 08:47:15;;;;;;;7.47;4.63;;;2.00;99.90;;;;;;4936177;28;20496;-86
2021/12/21 08:49:43;;;;;;;9.33;5.47;;;2.00;99.90;;;;;;4957674;28;21729;-86
2021/12/21 08:52:10;;;;;;;5.73;4.60;;;2.00;99.80;;;;;;4940545;28;20460;-83
2021/12/21 08:54:39;;;;;;;8.10;4.77;;;2.00;99.80;;;;;;4944661;28;21007;-84
2021/12/21 08:57:06;;;;;;;6.03;4.10;;;1.80;99.90;;;;;;4920650;28;20468;-84
2021/12/21 08:59:35;;;;;;;14.40;4.87;;;2.00;99.80;;;;;;4905728;28;20451;-86
2021/12/21 09:02:03;;;;;;;8.50;4.03;;;2.10;99.40;;;;;;4899515;28;20549;-84
2021/12/21 09:04:32;;;;;;;9.13;4.60;;;2.10;99.20;;;;;;4930872;28;21963;-84
2021/12/21 09:06:58;;;;;;;7.50;4.63;;;2.10;99.10;;;;;;4906840;28;20474;-82
2021/12/21 09:09:25;;;;;;;6.83;4.23;;;2.10;99.30;;;;;;4890539;28;21016;-83
2021/12/21 09:11:54;;;;;;;7.23;4.20;;;2.00;99.10;;;;;;4902281;28;20471;-83
2021/12/21 09:14:22;;;;;;;6.20;4.30;;;2.00;99.40;;;;;;4920827;28;21170;-83
2021/12/21 09:16:50;;;;;;;8.63;4.60;;;2.10;99.20;;;;;;4940122;28;20840;-83
2021/12/21 09:19:18;;;;;;;5.50;4.80;;;2.10;99.00;;;;;;4952685;28;20451;-85
2021/12/21 09:21:49;;;;;;;9.93;5.07;;;2.00;99.20;;;;;;4945646;28;20459;-84
2021/12/21 09:24:18;;;;;;;5.20;4.13;;;2.00;99.40;;;;;;4907269;28;20460;-84
2021/12/21 09:26:46;;;;;;;6.07;3.93;;;2.30;99.40;;;;;;4890362;28;20467;-83
2021/12/21 09:29:12;;;;;;;6.50;4.40;;;2.40;98.70;;;;;;4889278;28;20464;-84
2021/12/21 09:31:42;;;;;;;5.83;4.40;;;2.40;98.70;;;;;;4876662;28;21146;-85
2021/12/21 09:34:08;;;;;;;9.40;4.57;;;3.30;99.30;;;;;;4937393;28;20463;-84
2021/12/21 09:36:36;;;;;;;6.13;4.30;;;4.40;97.50;;;;;;4906898;28;21641;-83
2021/12/21 09:39:02;;;;;;;5.53;4.07;;;5.90;93.50;;;;;;4896929;28;20472;-83
2021/12/21 09:41:29;;;;;;;5.47;4.47;;;7.00;91.00;;;;;;4903055;28;21642;-85
2021/12/21 09:43:56;;;;;;;5.63;3.70;;;8.20;87.70;;;;;;4916255;28;20461;-84
2021/12/21 09:46:24;;;;;;;8.07;4.93;;;9.40;80.60;;;;;;4934312;28;20485;-85
2021/12/21 09:48:51;;;;;;;7.77;3.97;;;9.50;76.10;;;;;;4945258;28;20502;-83
2021/12/21 09:51:18;;;;;;;5.60;4.50;;;8.70;76.70;;;;;;4956560;28;20517;-84
2021/12/21 09:53:47;;;;;;;7.83;4.40;;;8.30;77.70;;;;;;4968890;28;20465;-83
2021/12/21 09:56:17;;;;;;;7.93;3.90;;;8.00;79.60;;;;;;4935481;28;20460;-82
2021/12/21 09:58:46;;;;;;;6.97;3.97;;;7.90;79.60;;;;;;4934499;28;20474;-85
2021/12/21 10:01:19;;;;;;;6.70;4.23;;;7.60;79.70;;;;;;4929624;28;20525;-82
2021/12/21 10:03:46;;;;;;;7.37;4.60;;;6.70;80.60;;;;;;4919421;28;20463;-84
2021/12/21 10:06:13;;;;;;;6.97;4.20;;;6.00;82.20;;;;;;4908324;28;20619;-83
2021/12/21 10:08:42;;;;;;;4.83;3.57;;;5.30;84.70;;;;;;4889405;28;20487;-84
2021/12/21 10:11:20;;;;;;;5.10;3.90;;;4.90;88.20;;;;;;4892931;28;21169;-82
2021/12/21 10:13:47;;;;;;;5.43;4.40;;;4.60;90.10;;;;;;4897103;28;20489;-83
2021/12/21 10:16:20;;;;;;;5.73;4.63;;;4.40;91.20;;;;;;4905860;28;20466;-82
2021/12/21 10:18:46;;;;;;;7.00;5.23;;;4.20;92.10;;;;;;4930723;28;20498;-84
2021/12/21 10:21:15;;;;;;;6.23;4.90;;;4.00;92.70;;;;;;4928265;28;20478;-84
2021/12/21 10:23:48;;;;;;;6.43;4.63;;;3.90;93.70;;;;;;4908070;28;20468;-80
2021/12/21 10:26:21;;;;;;;5.40;4.73;;;3.90;94.40;;;;;;4875302;28;20457;-81
2021/12/21 10:28:57;;;;;;;5.37;4.10;;;3.90;94.60;;;;;;4867266;28;20527;-84
2021/12/21 10:31:32;;;;;;;7.80;4.10;;;3.80;94.90;;;;;;4873671;28;20470;-83
2021/12/21 10:34:01;;;;;;;5.57;4.07;;;3.90;94.70;;;;;;4909094;28;21071;-83
2021/12/21 10:36:29;;;;;;;5.57;4.00;;;3.90;94.70;;;;;;4872842;28;20967;-83
2021/12/21 10:39:02;;;;;;;5.60;3.83;;;3.90;94.40;;;;;;4869495;28;20473;-84
2021/12/21 10:41:38;;;;;;;4.63;3.50;;;3.80;94.20;;;;;;4894704;28;20475;-84
2021/12/21 10:44:11;;;;;;;5.10;3.53;;;3.80;94.10;;;;;;4912277;28;20490;-85
2021/12/21 10:46:47;;;;;;;8.80;3.57;;;3.60;94.40;;;;;;4931330;28;20467;-83
2021/12/21 10:49:31;;;;;;;3.97;3.37;;;3.60;94.50;;;;;;4904015;28;21992;-84
2021/12/21 10:52:12;;;;;;;6.63;3.90;;;3.60;94.70;;;;;;4868992;28;20607;-84
2021/12/21 10:54:46;;;;;;;6.60;3.60;;;3.70;94.30;;;;;;4872875;28;20624;-85
2021/12/21 10:57:21;;;;;;;5.70;4.30;;;3.80;94.50;;;;;;4907644;28;20469;-84
2021/12/21 10:59:53;;;;;;;4.37;3.97;;;3.80;94.50;;;;;;4870189;28;20549;-85
2021/12/21 11:02:26;;;;;;;7.53;4.60;;;4.00;94.40;;;;;;4879065;28;20469;-84
2021/12/21 11:05:03;;;;;;;5.37;4.50;;;4.00;94.50;;;;;;4913286;28;21882;-85
2021/12/21 11:07:41;;;;;;;5.30;4.10;;;3.80;94.40;;;;;;4907509;28;20499;-85
2021/12/21 11:10:26;;;;;;;3.43;3.13;;;3.60;94.90;;;;;;4923799;28;21212;-85
2021/12/21 11:13:13;;;;;;;4.77;3.43;;;4.00;94.80;;;;;;4897553;28;20483;-84
2021/12/21 11:15:57;;;;;;;7.10;4.20;;;3.70;94.20;;;;;;4901558;28;20522;-85
2021/12/21 11:18:25;;;;;;;4.73;3.03;;;3.50;94.90;;;;;;4879345;28;20500;-85
2021/12/21 11:20:55;;;;;;;6.97;4.53;;;3.80;94.90;;;;;;4882378;28;20463;-85
2021/12/21 11:23:24;;;;;;;5.40;3.50;;;3.90;94.30;;;;;;4955000;28;20463;-85
2021/12/21 11:25:54;;;;;;;5.57;2.87;;;4.10;94.00;;;;;;4888263;28;21634;-86
2021/12/21 11:28:27;;;;;;;4.23;3.80;;;3.80;94.00;;;;;;4885454;28;20504;-86
2021/12/21 11:30:59;;;;;;;3.73;3.13;;;3.70;94.70;;;;;;4943836;28;20462;-85
2021/12/21 11:33:27;;;;;;;4.20;3.80;;;3.80;94.70;;;;;;4945789;28;20496;-82
2021/12/21 11:38:51;;;;;;;6.27;3.83;;;3.80;94.20;;;;;;4943061;28;21137;-84
2021/12/21 11:41:18;;;;;;;8.13;4.30;;;4.10;94.00;;;;;;4943490;28;20548;-85
2021/12/21 11:43:58;;;;;;;7.17;4.30;;;4.10;93.80;;;;;;4909920;28;20862;-82
2021/12/21 11:46:50;;;;;;;5.10;3.60;;;4.20;93.80;;;;;;4906374;28;22144;-83
2021/12/21 11:49:42;;;;;;;5.60;3.70;;;4.30;93.80;;;;;;4946663;28;20510;-85
2021/12/21 11:52:15;;;;;;;5.70;3.33;;;4.30;93.50;;;;;;4906759;28;20480;-83
2021/12/21 11:55:05;;;;;;;8.33;3.87;;;4.40;93.40;;;;;;4895298;28;20471;-83
2021/12/21 11:57:39;;;;;;;5.57;4.27;;;4.40;93.50;;;;;;4900235;28;20571;-83
2021/12/21 12:00:06;;;;;;;7.10;3.30;;;4.30;93.10;;;;;;4956322;28;20458;-86
2021/12/21 12:02:35;;;;;;;4.33;3.07;;;4.30;93.30;;;;;;4952442;28;20467;-83
2021/12/21 12:05:13;;;;;;;5.27;3.73;;;4.30;93.30;;;;;;4955477;28;20582;-82
2021/12/21 12:07:39;;;;;;;10.90;4.10;;;4.20;93.50;;;;;;4960167;28;21268;-85
2021/12/21 12:10:10;;;;;;;5.50;4.23;;;4.30;94.00;;;;;;4941004;28;21746;-85
2021/12/21 12:12:37;;;;;;;4.47;4.07;;;4.20;93.90;;;;;;4937163;28;21529;-86
2021/12/21 12:15:08;;;;;;;6.10;4.03;;;4.40;94.00;;;;;;4929102;28;20467;-84
2021/12/21 12:17:50;;;;;;;5.70;3.90;;;4.60;93.60;;;;;;4924213;28;20478;-85
2021/12/21 12:20:26;;;;;;;5.17;4.30;;;4.60;93.80;;;;;;4917112;28;20442;-84
2021/12/21 12:23:06;;;;;;;6.87;4.17;;;4.70;93.40;;;;;;4825751;28;20469;-85
2021/12/21 12:25:35;;;;;;;5.27;4.77;;;4.80;93.20;;;;;;4818539;28;20464;-83
2021/12/21 12:28:43;;;;;;;4.27;3.87;;;5.00;92.90;;;;;;4952412;23;20532;-84
2021/12/21 12:31:31;;;;;;;4.00;3.70;;;4.90;92.50;;;;;;4921954;28;20495;-83
2021/12/21 12:33:58;;;;;;;5.40;4.30;;;4.70;93.10;;;;;;4927984;28;20741;-87
2021/12/21 12:36:51;;;;;;;4.73;3.77;;;4.90;93.10;;;;;;4873655;28;22524;-84
2021/12/21 12:39:43;;;;;;;6.30;4.53;;;5.00;92.80;;;;;;4856221;28;20463;-85
2021/12/21 12:46:09;;;;;;;5.43;3.60;;;4.80;92.60;;;;;;4854926;28;22520;-83
2021/12/21 12:48:41;;;;;;;7.07;4.40;;;4.80;92.60;;;;;;4845093;28;20740;-84
2021/12/21 12:51:30;;;;;;;4.23;3.60;;;4.80;93.00;;;;;;4855891;28;20456;-86
2021/12/21 12:54:17;;;;;;;7.03;4.17;;;4.90;93.10;;;;;;4890617;28;20532;-84
2021/12/21 12:56:44;;;;;;;5.90;3.53;;;4.90;92.70;;;;;;4897624;28;20473;-84
2021/12/21 13:03:00;;;;;;;8.63;3.27;;;4.70;93.40;;;;;;4848615;28;20466;-83
2021/12/21 13:05:35;;;;;;;6.27;3.60;;;4.60;93.50;;;;;;4841792;28;20471;-84
2021/12/21 13:08:13;;;;;;;5.87;3.77;;;4.80;93.50;;;;;;4839834;28;20496;-84
2021/12/21 13:10:43;;;;;;;5.53;3.50;;;5.00;92.90;;;;;;4881923;28;20998;-83
2021/12/21 13:13:10;;;;;;;4.20;3.47;;;4.80;93.00;;;;;;4849947;28;20459;-84
2021/12/21 13:15:41;;;;;;;10.47;4.10;;;4.60;93.10;;;;;;4844794;28;20460;-83
2021/12/21 13:18:12;;;;;;;3.77;2.60;;;4.90;92.90;;;;;;4861513;28;20484;-85
2021/12/21 13:20:41;;;;;;;5.60;3.50;;;5.10;92.80;;;;;;4870025;28;20520;-82
2021/12/21 13:23:18;;;;;;;4.90;3.80;;;5.10;92.40;;;;;;4887401;28;20454;-84
2021/12/21 13:25:59;;;;;;;5.57;3.40;;;5.20;92.40;;;;;;4901940;28;20681;-83
2021/12/21 13:28:28;;;;;;;4.73;3.27;;;5.20;92.50;;;;;;4897622;28;20503;-85
2021/12/21 13:30:57;;;;;;;7.37;3.27;;;5.20;92.40;;;;;;4895480;28;20471;-84
2021/12/21 13:33:27;;;;;;;6.67;4.10;;;5.10;92.60;;;;;;4848242;28;20465;-84
2021/12/21 13:35:57;;;;;;;4.67;3.70;;;5.20;92.60;;;;;;4842269;28;20562;-84
2021/12/21 13:38:25;;;;;;;6.70;3.03;;;5.30;92.50;;;;;;4843901;28;20603;-84
2021/12/21 13:41:11;;;;;;;4.10;3.33;;;5.20;92.20;;;;;;4848159;28;20467;-83
2021/12/21 13:43:50;;;;;;;7.03;2.70;;;5.30;92.70;;;;;;4865298;28;20479;-84
2021/12/21 13:46:17;;;;;;;3.50;3.07;;;5.30;92.20;;;;;;4840275;28;21149;-83
2021/12/21 13:48:51;;;;;;;5.63;2.73;;;5.50;91.80;;;;;;4843271;28;20493;-84
2021/12/21 13:51:23;;;;;;;4.13;2.80;;;5.50;91.50;;;;;;4862108;28;20587;-84
2021/12/21 13:53:54;;;;;;;5.80;3.00;;;5.40;91.20;;;;;;4900476;28;20461;-83
2021/12/21 13:56:27;;;;;;;5.63;3.90;;;5.30;91.50;;;;;;4896692;28;20462;-85
2021/12/21 13:58:55;;;;;;;7.43;4.40;;;5.30;91.80;;;;;;4893310;28;21870;-85
2021/12/21 14:01:31;;;;;;;6.47;3.97;;;5.30;92.00;;;;;;4858216;28;20465;-84
2021/12/21 14:04:02;;;;;;;5.33;2.90;;;5.30;92.30;;;;;;4844614;28;20458;-87
2021/12/21 14:06:37;;;;;;;6.30;3.33;;;5.20;92.20;;;;;;4858274;28;21017;-84
2021/12/21 14:09:07;;;;;;;4.37;2.50;;;5.20;92.20;;;;;;4890644;28;20495;-83
2021/12/21 14:11:37;;;;;;;5.37;3.80;;;5.40;92.10;;;;;;4856650;28;20466;-84
2021/12/21 14:14:18;;;;;;;5.17;3.80;;;5.40;91.90;;;;;;4867349;28;20473;-84
2021/12/21 14:16:48;;;;;;;3.40;2.70;;;5.50;91.80;;;;;;4897744;28;20493;-83
2021/12/21 14:19:18;;;;;;;4.93;3.20;;;5.50;91.70;;;;;;4907204;28;20472;-85
2021/12/21 14:21:48;;;;;;;9.90;3.70;;;5.60;91.60;;;;;;4910772;28;20545;-85